createdAt,value
2018-09-05T00:00:55.942Z,20.20
2018-09-05T00:03:24.860Z,21.80
2018-09-05T00:05:53.754Z,21.60
2018-09-05T00:08:22.638Z,21.30
2018-09-05T00:10:51.539Z,20.77
2018-09-05T00:13:27.874Z,21.80
2018-09-05T00:16:09.183Z,21.87
2018-09-05T00:18:38.089Z,22.10
2018-09-05T00:21:06.982Z,22.33
2018-09-05T00:23:35.930Z,21.80
2018-09-05T00:26:05.107Z,21.73
2018-09-05T00:28:34.043Z,21.63
2018-09-05T00:31:03.057Z,22.20
2018-09-05T00:36:25.118Z,21.43
2018-09-05T00:39:10.486Z,22.33
2018-09-05T00:41:51.776Z,22.70
2018-09-05T00:44:20.716Z,22.17
2018-09-05T00:46:49.610Z,21.37
2018-09-05T00:49:31.965Z,21.70
2018-09-05T00:52:14.352Z,22.37
2018-09-05T00:54:48.189Z,22.93
2018-09-05T00:57:23.218Z,22.23
2018-09-05T00:59:55.782Z,22.93
2018-09-05T01:02:24.650Z,22.40
2018-09-05T01:04:54.585Z,22.43
2018-09-05T01:07:27.683Z,22.27
2018-09-05T01:09:56.566Z,23.80
2018-09-05T01:12:25.969Z,24.43
2018-09-05T01:14:55.384Z,24.27
2018-09-05T01:17:26.316Z,24.63
2018-09-05T01:20:13.741Z,24.00
2018-09-05T01:22:42.635Z,25.10
2018-09-05T01:25:11.529Z,26.60
2018-09-05T01:27:40.455Z,26.27
2018-09-05T01:30:28.677Z,27.33
2018-09-05T01:32:58.894Z,29.83
2018-09-05T01:35:27.979Z,28.87
2018-09-05T01:37:57.218Z,29.37
2018-09-05T01:40:26.256Z,26.87
2018-09-05T01:43:02.879Z,29.57
2018-09-05T01:45:31.799Z,29.33
2018-09-05T01:48:00.713Z,32.50
2018-09-05T01:50:49.473Z,31.43
2018-09-05T01:53:34.842Z,31.40
2018-09-05T01:56:04.930Z,30.90
2018-09-05T01:58:33.824Z,33.07
2018-09-05T02:01:02.851Z,32.67
2018-09-05T02:03:51.690Z,33.03
2018-09-05T02:06:21.686Z,32.83
2018-09-05T02:08:54.147Z,33.17
2018-09-05T02:11:23.025Z,31.77
2018-09-05T02:14:14.698Z,31.87
2018-09-05T02:16:43.816Z,31.00
2018-09-05T02:19:12.716Z,30.17
2018-09-05T02:24:35.910Z,29.73
2018-09-05T02:27:05.068Z,30.13
2018-09-05T02:29:34.002Z,29.80
2018-09-05T02:32:03.291Z,30.23
2018-09-05T02:34:32.162Z,28.83
2018-09-05T02:37:01.067Z,29.63
2018-09-05T02:39:44.208Z,29.50
2018-09-05T02:42:25.401Z,28.30
2018-09-05T02:44:54.408Z,28.40
2018-09-05T02:47:23.249Z,29.87
2018-09-05T02:50:14.556Z,28.90
2018-09-05T02:52:43.481Z,27.10
2018-09-05T02:55:16.584Z,28.20
2018-09-05T02:57:45.463Z,26.93
2018-09-05T03:00:14.365Z,28.30
2018-09-05T03:02:45.281Z,27.03
2018-09-05T03:05:14.190Z,27.67
2018-09-05T03:07:43.080Z,27.30
2018-09-05T03:10:18.009Z,27.57
2018-09-05T03:12:46.896Z,27.97
2018-09-05T03:15:19.947Z,28.37
2018-09-05T03:17:48.905Z,26.70
2018-09-05T03:20:17.829Z,27.30
2018-09-05T03:22:50.168Z,25.77
2018-09-05T03:28:26.122Z,28.50
2018-09-05T03:30:55.026Z,26.33
2018-09-05T03:33:23.918Z,27.90
2018-09-05T03:35:52.884Z,26.87
2018-09-05T03:38:21.816Z,27.63
2018-09-05T03:40:50.736Z,27.87
2018-09-05T03:43:23.973Z,27.23
2018-09-05T03:45:57.915Z,27.77
2018-09-05T03:48:26.854Z,27.23
2018-09-05T03:51:02.047Z,26.67
2018-09-05T03:53:31.019Z,26.73
2018-09-05T03:56:03.901Z,26.63
2018-09-05T03:58:38.677Z,26.40
2018-09-05T04:01:08.607Z,27.17
2018-09-05T04:03:37.493Z,26.83
2018-09-05T04:06:08.503Z,25.93
2018-09-05T04:08:47.098Z,26.63
2018-09-05T04:11:23.560Z,26.43
2018-09-05T04:13:59.473Z,27.83
2018-09-05T04:16:28.382Z,27.03
2018-09-05T04:19:05.261Z,27.27
2018-09-05T04:21:34.257Z,26.57
2018-09-05T04:24:09.409Z,27.33
2018-09-05T04:26:50.410Z,27.10
2018-09-05T04:29:41.559Z,27.43
2018-09-05T04:32:11.517Z,29.87
2018-09-05T04:34:41.530Z,29.33
2018-09-05T04:37:10.516Z,29.33
2018-09-05T04:39:43.317Z,29.40
2018-09-05T04:45:06.177Z,30.73
2018-09-05T04:47:48.218Z,31.53
2018-09-05T04:50:25.432Z,29.53
2018-09-05T04:52:54.421Z,30.57
2018-09-05T04:55:23.312Z,29.93
2018-09-05T04:57:52.288Z,30.57
2018-09-05T05:00:21.183Z,32.03
2018-09-05T05:02:50.223Z,31.10
2018-09-05T05:05:19.138Z,29.63
2018-09-05T05:07:50.059Z,29.87
2018-09-05T05:10:28.806Z,29.83
2018-09-05T05:12:57.704Z,30.40
2018-09-05T05:15:26.608Z,29.23
2018-09-05T05:17:59.304Z,29.37
2018-09-05T05:20:28.220Z,29.23
2018-09-05T05:23:09.477Z,29.63
2018-09-05T05:25:40.523Z,29.23
2018-09-05T05:28:21.779Z,28.00
2018-09-05T05:30:57.976Z,28.00
2018-09-05T05:33:29.248Z,28.53
2018-09-05T05:36:34.588Z,28.90
2018-09-05T05:39:16.860Z,28.47
2018-09-05T05:41:45.813Z,28.43
2018-09-05T05:44:18.572Z,29.13
2018-09-05T05:47:05.144Z,28.00
2018-09-05T05:49:39.883Z,27.77
2018-09-05T05:52:15.179Z,27.40
2018-09-05T05:57:39.209Z,28.93
2018-09-05T06:00:09.172Z,28.57
2018-09-05T06:02:44.969Z,28.07
2018-09-05T06:05:13.892Z,27.90
2018-09-05T06:07:42.876Z,28.23
2018-09-05T06:10:12.795Z,29.47
2018-09-05T06:12:51.226Z,28.93
2018-09-05T06:15:20.097Z,29.73
2018-09-05T06:17:49.130Z,29.63
2018-09-05T06:20:21.312Z,28.20
2018-09-05T06:23:00.633Z,28.90
2018-09-05T06:25:29.545Z,29.13
2018-09-05T06:28:05.857Z,28.40
2018-09-05T06:30:54.220Z,29.27
2018-09-05T06:33:23.111Z,29.00
2018-09-05T06:35:52.016Z,29.90
2018-09-05T06:38:20.919Z,28.63
2018-09-05T06:40:49.879Z,29.13
2018-09-05T06:43:18.884Z,29.10
2018-09-05T06:45:48.625Z,29.93
2018-09-05T06:48:29.865Z,31.27
2018-09-05T06:51:02.988Z,30.13
2018-09-05T06:53:31.899Z,28.27
2018-09-05T06:56:00.809Z,29.50
2018-09-05T06:58:37.078Z,29.10
2018-09-05T07:01:07.016Z,29.27
2018-09-05T07:03:42.517Z,29.50
2018-09-05T07:06:17.119Z,28.73
2018-09-05T07:08:46.013Z,25.17
2018-09-05T07:11:14.912Z,27.53
2018-09-05T07:13:43.807Z,28.07
2018-09-05T07:16:13.446Z,29.30
2018-09-05T07:18:47.419Z,27.73
2018-09-05T07:21:16.336Z,26.40
2018-09-05T07:23:45.243Z,26.67
2018-09-05T07:26:18.658Z,25.50
2018-09-05T07:28:47.510Z,28.00
2018-09-05T07:31:16.393Z,25.23
2018-09-05T07:33:51.263Z,26.70
2018-09-05T07:36:20.285Z,27.70
2018-09-05T07:38:53.640Z,25.87
2018-09-05T07:41:22.625Z,23.53
2018-09-05T07:43:51.596Z,23.90
2018-09-05T07:46:24.306Z,22.57
2018-09-05T07:48:53.196Z,23.90
2018-09-05T07:51:22.090Z,21.93
2018-09-05T07:54:04.326Z,23.30
2018-09-05T07:56:33.694Z,24.20
2018-09-05T07:59:18.910Z,23.63
2018-09-05T08:01:52.725Z,22.07
2018-09-05T08:04:23.732Z,24.07
2018-09-05T08:06:52.734Z,22.17
2018-09-05T08:12:22.216Z,23.43
2018-09-05T08:14:51.143Z,22.47
2018-09-05T08:17:20.057Z,20.97
2018-09-05T08:19:49.056Z,22.80
2018-09-05T08:22:19.043Z,22.03
2018-09-05T08:24:48.365Z,21.00
2018-09-05T08:27:34.094Z,20.47
2018-09-05T08:30:03.091Z,21.07
2018-09-05T08:32:35.692Z,20.10
2018-09-05T08:35:09.772Z,21.70
2018-09-05T08:37:38.672Z,22.30
2018-09-05T08:40:10.860Z,20.40
2018-09-05T08:42:39.802Z,21.20
2018-09-05T08:45:11.947Z,19.30
2018-09-05T08:47:46.566Z,20.40
2018-09-05T08:50:23.218Z,20.70
2018-09-05T08:53:10.201Z,19.73
2018-09-05T08:55:57.926Z,20.40
2018-09-05T08:58:27.875Z,20.73
2018-09-05T09:01:15.032Z,21.97
2018-09-05T09:03:47.483Z,18.97
2018-09-05T09:06:16.471Z,18.20
2018-09-05T09:08:51.777Z,18.20
2018-09-05T09:11:27.573Z,21.50
2018-09-05T09:13:56.559Z,21.00
2018-09-05T09:16:33.270Z,18.33
2018-09-05T09:19:07.841Z,21.40
2018-09-05T09:21:40.704Z,20.17
2018-09-05T09:24:10.841Z,18.23
2018-09-05T09:26:44.588Z,17.03
2018-09-05T09:29:13.561Z,19.73
2018-09-05T09:31:42.531Z,18.60
2018-09-05T09:34:11.475Z,20.27
2018-09-05T09:36:47.628Z,21.43
2018-09-05T09:39:18.584Z,21.80
2018-09-05T09:41:52.904Z,19.87
2018-09-05T09:44:21.873Z,19.00
2018-09-05T09:46:53.158Z,18.40
2018-09-05T09:49:26.597Z,23.00
2018-09-05T09:52:05.930Z,20.67
2018-09-05T09:54:52.654Z,19.33
2018-09-05T09:57:21.837Z,20.50
2018-09-05T09:59:56.772Z,23.07
2018-09-05T10:02:32.084Z,21.70
2018-09-05T10:05:07.304Z,24.07
2018-09-05T10:07:41.704Z,22.87
2018-09-05T10:10:16.281Z,22.43
2018-09-05T10:12:50.251Z,23.17
2018-09-05T10:15:26.792Z,23.77
2018-09-05T10:18:01.201Z,23.43
2018-09-05T10:20:35.146Z,23.40
2018-09-05T10:23:08.309Z,23.70
2018-09-05T10:25:38.210Z,22.67
2018-09-05T10:28:13.544Z,23.60
2018-09-05T10:30:42.431Z,21.40
2018-09-05T10:33:11.358Z,22.77
2018-09-05T10:35:43.652Z,23.57
2018-09-05T10:38:15.782Z,22.87
2018-09-05T10:40:45.085Z,20.70
2018-09-05T10:43:13.980Z,23.33
2018-09-05T10:45:42.874Z,22.30
2018-09-05T10:48:11.976Z,23.43
2018-09-05T10:50:40.951Z,20.67
2018-09-05T10:53:10.030Z,18.17
2018-09-05T10:55:49.552Z,21.83
2018-09-05T10:58:18.447Z,21.73
2018-09-05T11:00:47.332Z,20.13
2018-09-05T11:03:23.153Z,20.10
2018-09-05T11:05:52.097Z,20.03
2018-09-05T11:08:35.394Z,18.73
2018-09-05T11:11:09.420Z,20.20
2018-09-05T11:13:43.553Z,17.97
2018-09-05T11:16:13.564Z,19.50
2018-09-05T11:18:42.592Z,17.60
2018-09-05T11:21:11.684Z,19.00
2018-09-05T11:23:40.774Z,18.17
2018-09-05T11:26:09.945Z,18.27
2018-09-05T11:28:38.816Z,16.90
2018-09-05T11:31:08.274Z,16.17
2018-09-05T11:33:43.027Z,18.63
2018-09-05T11:36:16.731Z,18.37
2018-09-05T11:38:47.682Z,17.70
2018-09-05T11:41:16.671Z,16.67
2018-09-05T11:43:45.599Z,17.90
2018-09-05T11:46:17.964Z,18.60
2018-09-05T11:48:46.951Z,16.87
2018-09-05T11:51:26.529Z,17.90
2018-09-05T11:54:11.846Z,15.80
2018-09-05T11:56:41.819Z,15.77
2018-09-05T11:59:12.775Z,17.97
2018-09-05T12:01:49.338Z,16.80
2018-09-05T12:04:19.215Z,16.83
2018-09-05T12:06:48.335Z,15.70
2018-09-05T12:09:17.599Z,14.53
2018-09-05T12:11:54.837Z,15.10
2018-09-05T12:14:25.777Z,15.00
2018-09-05T12:16:54.669Z,15.30
2018-09-05T12:19:23.673Z,13.97
2018-09-05T12:21:52.619Z,13.40
2018-09-05T12:24:21.518Z,14.40
2018-09-05T12:27:00.687Z,14.90
2018-09-05T12:29:32.998Z,14.57
2018-09-05T12:32:02.003Z,14.13
2018-09-05T12:34:35.201Z,14.50
2018-09-05T12:37:10.737Z,14.90
2018-09-05T12:39:46.463Z,13.30
2018-09-05T12:42:15.320Z,13.40
2018-09-05T12:44:49.275Z,13.87
2018-09-05T12:47:18.194Z,14.50
2018-09-05T12:49:48.141Z,13.77
2018-09-05T12:52:17.228Z,13.87
2018-09-05T12:54:47.302Z,13.70
2018-09-05T12:57:20.577Z,13.67
2018-09-05T12:59:50.588Z,14.73
2018-09-05T13:02:20.552Z,14.60
2018-09-05T13:04:49.530Z,14.47
2018-09-05T13:07:18.655Z,14.10
2018-09-05T13:09:49.049Z,15.43
2018-09-05T13:12:19.085Z,14.03
2018-09-05T13:14:48.055Z,13.97
2018-09-05T13:17:17.019Z,13.63
2018-09-05T13:19:45.902Z,13.87
2018-09-05T13:22:14.816Z,14.87
2018-09-05T13:24:45.875Z,14.97
2018-09-05T13:27:18.692Z,15.77
2018-09-05T13:29:47.713Z,14.40
2018-09-05T13:32:16.733Z,14.40
2018-09-05T13:34:49.782Z,14.77
2018-09-05T13:37:18.842Z,15.70
2018-09-05T13:39:47.746Z,16.33
2018-09-05T13:42:17.699Z,16.43
2018-09-05T13:44:46.702Z,15.70
2018-09-05T13:47:15.684Z,16.33
2018-09-05T13:49:45.915Z,15.97
2018-09-05T13:52:18.146Z,16.37
2018-09-05T13:54:47.655Z,15.60
2018-09-05T13:57:18.813Z,15.43
2018-09-05T13:59:48.013Z,17.43
2018-09-05T14:02:19.404Z,16.10
2018-09-05T14:04:50.945Z,17.07
2018-09-05T14:07:19.880Z,16.77
2018-09-05T14:09:50.838Z,16.43
2018-09-05T14:12:20.889Z,17.10
2018-09-05T14:14:50.897Z,16.10
2018-09-05T14:17:25.174Z,15.77
2018-09-05T14:19:55.127Z,15.27
2018-09-05T14:22:24.131Z,17.67
2018-09-05T14:24:57.839Z,17.43
2018-09-05T14:27:26.925Z,18.47
2018-09-05T14:29:56.893Z,17.37
2018-09-05T14:32:27.900Z,18.00
2018-09-05T14:34:57.976Z,16.30
2018-09-05T14:37:36.955Z,16.43
2018-09-05T14:40:06.938Z,18.20
2018-09-05T14:42:49.366Z,16.67
2018-09-05T14:45:22.688Z,15.13
2018-09-05T14:47:52.717Z,16.13
2018-09-05T14:50:25.295Z,16.17
2018-09-05T14:52:55.234Z,17.60
2018-09-05T14:55:24.273Z,15.10
2018-09-05T14:57:54.259Z,15.60
2018-09-05T15:00:25.177Z,15.83
2018-09-05T15:02:57.147Z,15.27
2018-09-05T15:05:27.424Z,14.13
2018-09-05T15:08:06.907Z,15.00
2018-09-05T15:10:41.934Z,13.97
2018-09-05T15:13:11.999Z,14.00
2018-09-05T15:15:40.961Z,15.17
2018-09-05T15:18:11.957Z,14.40
2018-09-05T15:20:41.932Z,14.07
2018-09-05T15:23:12.418Z,14.43
2018-09-05T15:25:42.760Z,15.50
2018-09-05T15:28:12.685Z,15.53
2018-09-05T15:30:48.161Z,15.70
2018-09-05T15:33:18.136Z,16.27
2018-09-05T15:35:51.847Z,18.17
2018-09-05T15:38:20.843Z,17.03
2018-09-05T15:40:50.908Z,15.67
2018-09-05T15:43:21.889Z,16.50
2018-09-05T15:45:52.808Z,16.90
2018-09-05T15:48:21.818Z,16.23
2018-09-05T15:50:55.792Z,17.93
2018-09-05T15:53:25.024Z,18.40
2018-09-05T15:55:56.294Z,16.40
2018-09-05T15:58:25.317Z,16.67
2018-09-05T16:01:01.703Z,16.00
2018-09-05T16:03:30.675Z,14.87
2018-09-05T16:05:59.743Z,15.30
2018-09-05T16:08:32.340Z,15.60
2018-09-05T16:11:14.092Z,15.57
2018-09-05T16:13:48.167Z,14.07
2018-09-05T16:16:18.332Z,14.47
2018-09-05T16:18:49.745Z,14.20
2018-09-05T16:21:19.775Z,13.20
2018-09-05T16:23:50.081Z,13.97
2018-09-05T16:26:27.117Z,13.37
2018-09-05T16:28:57.106Z,12.27
2018-09-05T16:31:30.413Z,12.30
2018-09-05T16:34:01.316Z,12.63
2018-09-05T16:36:30.276Z,12.53
2018-09-05T16:39:09.561Z,12.80
2018-09-05T16:41:41.315Z,12.77
2018-09-05T16:44:10.948Z,12.87
2018-09-05T16:46:40.194Z,12.53
2018-09-05T16:49:10.168Z,12.50
2018-09-05T16:51:39.149Z,12.63
2018-09-05T16:54:10.119Z,11.97
2018-09-05T16:56:41.095Z,11.77
2018-09-05T16:59:10.031Z,11.57
2018-09-05T17:01:41.013Z,11.20
2018-09-05T17:04:13.773Z,11.30
2018-09-05T17:06:47.602Z,12.23
2018-09-05T17:09:21.841Z,12.17
2018-09-05T17:11:50.860Z,12.53
2018-09-05T17:14:20.823Z,12.57
2018-09-05T17:16:50.874Z,11.40
2018-09-05T17:19:25.934Z,11.20
2018-09-05T17:21:56.889Z,11.40
2018-09-05T17:24:26.923Z,12.10
2018-09-05T17:26:55.913Z,11.60
2018-09-05T17:29:24.959Z,10.37
2018-09-05T17:31:54.903Z,11.37
2018-09-05T17:34:26.007Z,10.57
2018-09-05T17:36:55.976Z,10.37
2018-09-05T17:39:28.402Z,11.07
2018-09-05T17:42:04.727Z,10.83
2018-09-05T17:44:38.345Z,11.40
2018-09-05T17:47:07.325Z,10.30
2018-09-05T17:49:40.491Z,10.73
2018-09-05T17:52:18.927Z,10.03
2018-09-05T17:54:53.233Z,11.07
2018-09-05T17:57:22.266Z,10.73
2018-09-05T17:59:51.205Z,10.40
2018-09-05T18:02:20.538Z,9.13
2018-09-05T18:04:49.463Z,10.00
2018-09-05T18:07:18.383Z,10.23
2018-09-05T18:09:47.432Z,9.50
2018-09-05T18:12:16.354Z,9.47
2018-09-05T18:14:47.339Z,9.80
2018-09-05T18:17:17.474Z,9.63
2018-09-05T18:19:50.734Z,9.83
2018-09-05T18:22:19.702Z,9.87
2018-09-05T18:24:48.899Z,10.53
2018-09-05T18:27:18.834Z,10.00
2018-09-05T18:29:47.838Z,9.30
2018-09-05T18:32:17.806Z,9.47
2018-09-05T18:34:48.323Z,9.30
2018-09-05T18:37:17.273Z,8.60
2018-09-05T18:39:48.206Z,9.13
2018-09-05T18:42:19.236Z,9.60
2018-09-05T18:44:49.229Z,9.37
2018-09-05T18:47:22.484Z,9.93
2018-09-05T18:49:55.321Z,9.70
2018-09-05T18:52:24.325Z,9.93
2018-09-05T18:55:04.566Z,10.53
2018-09-05T18:57:39.277Z,9.20
2018-09-05T19:00:21.892Z,10.27
2018-09-05T19:03:07.385Z,9.53
2018-09-05T19:05:40.975Z,9.57
2018-09-05T19:08:09.960Z,9.30
2018-09-05T19:10:38.905Z,9.73
2018-09-05T19:13:07.870Z,9.07
2018-09-05T19:15:49.243Z,9.53
2018-09-05T19:18:28.112Z,8.90
2018-09-05T19:21:01.417Z,8.70
2018-09-05T19:23:55.146Z,8.20
2018-09-05T19:26:31.332Z,8.93
2018-09-05T19:29:10.942Z,8.90
2018-09-05T19:31:47.648Z,9.97
2018-09-05T19:34:24.456Z,8.87
2018-09-05T19:36:53.432Z,8.90
2018-09-05T19:39:22.393Z,9.47
2018-09-05T19:41:54.541Z,8.97
2018-09-05T19:44:46.369Z,9.20
2018-09-05T19:47:15.398Z,8.73
2018-09-05T19:49:48.134Z,8.70
2018-09-05T19:52:35.163Z,8.43
2018-09-05T19:57:58.698Z,8.20
2018-09-05T20:00:29.600Z,8.33
2018-09-05T20:02:58.852Z,7.73
2018-09-05T20:05:27.790Z,8.53
2018-09-05T20:08:00.260Z,8.50
2018-09-05T20:10:30.241Z,7.80
2018-09-05T20:13:02.979Z,8.00
2018-09-05T20:15:40.254Z,7.90
2018-09-05T20:21:02.970Z,7.80
2018-09-05T20:23:35.504Z,8.43
2018-09-05T20:26:21.307Z,8.80
2018-09-05T20:29:08.346Z,7.63
2018-09-05T20:31:38.326Z,8.17
2018-09-05T20:34:13.258Z,7.20
2018-09-05T20:36:42.203Z,7.37
2018-09-05T20:42:14.818Z,7.17
2018-09-05T20:44:50.519Z,7.80
2018-09-05T20:47:19.573Z,7.00
2018-09-05T20:49:48.506Z,7.30
2018-09-05T20:52:22.442Z,6.83
2018-09-05T20:54:51.300Z,7.73
2018-09-05T21:00:23.674Z,7.03
2018-09-05T21:02:52.605Z,6.70
2018-09-05T21:05:22.615Z,7.03
2018-09-05T21:07:51.502Z,7.50
2018-09-05T21:10:20.362Z,7.13
2018-09-05T21:12:50.066Z,7.40
2018-09-05T21:15:29.081Z,7.40
2018-09-05T21:18:07.691Z,7.90
2018-09-05T21:20:36.570Z,7.03
2018-09-05T21:23:15.429Z,7.03
2018-09-05T21:25:54.379Z,7.07
2018-09-05T21:28:33.413Z,6.80
2018-09-05T21:31:02.450Z,7.27
2018-09-05T21:33:38.356Z,7.20
2018-09-05T21:36:24.399Z,7.17
2018-09-05T21:41:50.123Z,6.90
2018-09-05T21:44:25.525Z,6.73
2018-09-05T21:46:54.420Z,6.73
2018-09-05T21:49:35.343Z,6.43
2018-09-05T21:52:10.593Z,7.27
2018-09-05T21:57:38.582Z,6.30
2018-09-05T22:00:10.749Z,6.80
2018-09-05T22:02:39.663Z,6.33
2018-09-05T22:05:08.723Z,7.00
2018-09-05T22:10:32.160Z,6.27
2018-09-05T22:13:06.594Z,6.23
2018-09-05T22:15:54.067Z,6.43
2018-09-05T22:18:25.091Z,7.30
2018-09-05T22:21:01.931Z,6.47
2018-09-05T22:26:24.338Z,6.90
2018-09-05T22:28:59.180Z,7.80
2018-09-05T22:31:32.346Z,6.50
2018-09-05T22:34:01.243Z,6.73
2018-09-05T22:36:30.448Z,5.83
2018-09-05T22:39:02.620Z,6.20
2018-09-05T22:41:43.890Z,6.57
2018-09-05T22:45:21.575Z,7.00
2018-09-05T22:48:05.611Z,6.60
2018-09-05T22:51:22.402Z,7.10
2018-09-05T22:57:08.138Z,6.60
2018-09-05T22:59:50.631Z,7.23
2018-09-05T23:04:40.519Z,6.40
2018-09-05T23:07:22.650Z,7.30
2018-09-05T23:10:02.795Z,6.77
2018-09-05T23:15:38.045Z,7.13
2018-09-05T23:18:49.591Z,6.77
2018-09-05T23:21:26.737Z,7.43
2018-09-05T23:24:09.905Z,7.70
2018-09-05T23:26:42.669Z,8.50
2018-09-05T23:29:12.959Z,7.90
2018-09-05T23:31:41.868Z,7.20
2018-09-05T23:34:14.178Z,7.50
2018-09-05T23:36:48.808Z,7.13
2018-09-05T23:39:17.729Z,7.70
2018-09-05T23:41:59.284Z,7.73
2018-09-05T23:44:32.280Z,7.07
2018-09-05T23:47:01.180Z,7.73
2018-09-05T23:49:32.113Z,6.93
2018-09-05T23:54:55.589Z,7.40
2018-09-05T23:57:44.027Z,7.47
